Flight Track Log - Related Links

Times and Time Zones

All times are in EDT time to prevent confusion due to time zone crossing. See the SKW6386 flight status page for this flight to view local times or setup timezone preferences in your user account.

Time Position Orientation Groundspeed Altitude Reporting Facility
EDT Latitude Longitude Course Direction KTS MPH feet Rate Location/Type
Tue 07:28:36 PM 37.6667 -122.3167 36° Northeast 225 259 2,600  Level Northern TRACON
Tue 07:29:36 PM 37.7167 -122.2500 47° Northeast 266 306 5,700 2,654 Climbing Northern TRACON
Tue 07:31:00 PM 38.0187 -122.0036 36° Northeast  Level Estimated
Tue 07:31:12 PM 37.7897 -122.1403 50° Northeast 284 327 9,500  Level Oakland Center
Tue 07:32:00 PM 38.1184 -121.9100 36° Northeast  Level Estimated
Tue 07:33:00 PM 38.2180 -121.8162 36° Northeast  Level Estimated
Tue 07:33:14 PM 37.9086 -121.9756 48° Northeast 345 397 13,100  Level Oakland Center
Tue 07:34:16 PM 37.9925 -121.9092 32° Northeast 354 407 14,900 2,000 Climbing Oakland Center
Tue 07:35:17 PM 38.0967 -121.8283 31° Northeast 363 418 17,200 1,869 Climbing Oakland Center
Tue 07:36:18 PM 38.1850 -121.7578 32° Northeast 372 428 18,700 1,366 Climbing Oakland Center
Tue 07:37:20 PM 38.2772 -121.6847 32° Northeast 388 447 20,000 1,317 Climbing Oakland Center
Tue 07:38:21 PM 38.3694 -121.6092 33° Northeast 392 451 21,400 1,328 Climbing Oakland Center
Tue 07:39:22 PM 38.4589 -121.5358 33° Northeast 400 460 22,700 1,171 Climbing Oakland Center
Tue 07:40:24 PM 38.5600 -121.4542 32° Northeast 410 472 23,800 1,024 Climbing Oakland Center
Tue 07:41:25 PM 38.6575 -121.3714 34° Northeast 417 480 24,800 1,033 Climbing Oakland Center
Tue 07:42:26 PM 38.7586 -121.2875 33° Northeast 422 486 25,900 976 Climbing Oakland Center
Tue 07:43:28 PM 38.8592 -121.2031 33° Northeast 425 489 26,800 732 Climbing Oakland Center
Tue 07:44:29 PM 38.9622 -121.1172 33° Northeast 434 499 27,400 683 Climbing Oakland Center
Tue 07:45:31 PM 39.0875 -121.0108 33° Northeast 445 512 28,200 732 Climbing Oakland Center
Tue 07:46:32 PM 39.1928 -120.9233 33° Northeast 448 516 28,900 689 Climbing Oakland Center
Tue 07:47:33 PM 39.2975 -120.8325 34° Northeast 451 519 29,600 717 Climbing Oakland Center
Tue 07:49:36 PM 39.5078 -120.6556 46° Northeast 450 518 31,100 717 Climbing Oakland Center
Tue 07:50:37 PM 39.6128 -120.5656 33° Northeast 450 518 31,800 439 Climbing Oakland Center
Tue 07:51:39 PM 39.7194 -120.4775 32° Northeast 451 519 32,000 76 Climbing Oakland Center
Tue 07:53:14 PM 39.9044 -120.3125 34° Northeast 469 540 32,000  Level Salt Center
Tue 07:54:16 PM 40.0136 -120.2194 33° Northeast 481 554 32,000  Level Salt Center
Tue 07:55:18 PM 40.1217 -120.1244 34° Northeast 486 559 32,000  Level Salt Center
Tue 07:56:19 PM 40.2464 -120.0147 34° Northeast 487 560 32,000 293 Level Salt Center
Tue 07:57:21 PM 40.3533 -119.9217 34° Northeast 486 559 32,600 484 Climbing Salt Center
Tue 07:58:23 PM 40.4758 -119.8150 34° Northeast 477 549 33,000 162 Climbing Salt Center
Tue 07:59:49 PM 40.6142 -119.6922 34° Northeast 474 545 33,000  Level Oakland Center
Tue 08:00:51 PM 40.7461 -119.5753 34° Northeast 476 548 33,000  Level Oakland Center
Tue 08:01:52 PM 40.8433 -119.4881 34° Northeast 474 545 33,000  Level Oakland Center
Tue 08:03:31 PM 41.0314 -119.3181 34° Northeast 470 541 33,000  Level Salt Center
Tue 08:04:33 PM 41.1356 -119.2253 34° Northeast 470 541 33,000  Level Salt Center
Tue 08:05:34 PM 41.2556 -119.1169 34° Northeast 470 541 33,000  Level Salt Center
Tue 08:06:36 PM 41.3561 -119.0247 35° Northeast 468 539 33,000  Level Salt Center
Tue 08:07:38 PM 41.4547 -118.9347 34° Northeast 460 529 33,000  Level Salt Center
Tue 08:08:39 PM 41.5714 -118.8278 34° Northeast 458 527 33,000  Level Salt Center
Tue 08:09:41 PM 41.6703 -118.7347 35° Northeast 458 527 33,000  Level Salt Center
Tue 08:10:43 PM 41.7856 -118.6292 34° Northeast 453 521 33,000  Level Salt Center
Tue 08:12:46 PM 41.9831 -118.4461 38° Northeast 452 520 33,000  Level Salt Center
Tue 08:13:48 PM 42.0975 -118.3381 35° Northeast 452 520 33,000  Level Salt Center
Tue 08:14:49 PM 42.1964 -118.2461 35° Northeast 451 519 33,000  Level Salt Center
Tue 08:15:51 PM 42.3108 -118.1358 35° Northeast 451 519 33,000  Level Salt Center
Tue 08:16:53 PM 42.4089 -118.0386 36° Northeast 456 525 33,000  Level Salt Center
Tue 08:17:54 PM 42.5111 -117.9431 35° Northeast 452 520 33,000  Level Salt Center
Tue 08:18:56 PM 42.6081 -117.8342 40° Northeast 455 524 33,000  Level Salt Center
Tue 08:19:58 PM 42.7019 -117.6714 52° Northeast 457 526 33,000 -634 Level Salt Center
Tue 08:20:59 PM 42.7817 -117.5389 51° Northeast 456 525 31,700 -2,098 Descending Salt Center
Tue 08:22:01 PM 42.8639 -117.3958 52° Northeast 478 550 28,700 -3,145 Descending Salt Center
Tue 08:23:03 PM 42.9467 -117.2556 51° Northeast 477 549 25,200 -3,578 Descending Salt Center
Tue 08:23:50 PM 43.0122 -117.1436 51° Northeast 448 516 22,200 -3,443 Descending Salt Center
Tue 08:24:04 PM 43.0233 -117.1214 56° Northeast 452 520 21,700 -3,600 Descending Salt Center
Tue 08:24:20 PM 43.0511 -117.0769 49° Northeast 438 504 20,400 -3,290 Descending Salt Center
Tue 08:25:06 PM 43.0978 -116.9939 52° Northeast 434 499 18,300 -3,246 Descending Salt Center
Tue 08:25:21 PM 43.1253 -116.9475 51° Northeast 421 484 17,100 -2,806 Descending Salt Center
Tue 08:26:08 PM 43.1686 -116.8694 53° Northeast 419 482 15,400 -2,700 Descending Salt Center
Tue 08:26:21 PM 43.1914 -116.8325 50° Northeast 411 473 14,400 -1,946 Descending Salt Center
Tue 08:27:22 PM 43.2658 -116.7053 51° Northeast 396 456 13,000 -764 Descending Salt Center
Tue 08:28:11 PM 43.3117 -116.6200 54° Northeast 351 404 13,000 -197 Level Salt Center
Tue 08:28:23 PM 43.3267 -116.6089 28° Northeast 318 366 12,800 -1,355 Descending Salt Center
Tue 08:29:13 PM 43.3864 -116.5675 27° Northeast 301 346 11,600 -1,600 Descending Salt Center
Tue 08:29:23 PM 43.4008 -116.5581 25° Northeast 278 320 11,200 -1,574 Descending Salt Center
Tue 08:30:14 PM 43.4542 -116.5275 23° Northeast 270 311 10,000 -1,791 Descending Salt Center
Tue 08:30:30 PM 43.4753 -116.5189 16° North 244 281 9,200 -1,935 Descending Salt Center
Tue 08:31:16 PM 43.5153 -116.4992 20° North 235 270 8,000 -1,667 Descending Salt Center
Tue 08:32:18 PM 43.5667 -116.4650 26° Northeast 213 245 6,200 -1,760 Descending Salt Center
Tue 08:32:31 PM 43.5797 -116.4475 44° Northeast 206 237 5,800 -1,279 Descending Salt Center
Tue 08:33:19 PM 43.5975 -116.3864 68° East 208 239 4,900 -985 Descending Salt Center
Tue 08:33:38 PM 43.6008 -116.3683 76° East 189 217 4,700 -677 Descending Salt Center
Tue 08:34:21 PM 43.5981 -116.3194 94° East 186 214 4,200 -900 Descending Salt Center
Tue 08:34:38 PM 43.5919 -116.3006 114° Southeast 155 178 3,800 -1,412 Descending Salt Center

Login

Don't have an account? Register now (free) for customized features, flight alerts, and more!